TimeMST,TemperatureF,Dew PointF,Humidity,Sea Level PressureIn,VisibilityMPH,Wind Direction,Wind SpeedMPH,Gust SpeedMPH,PrecipitationIn,Events,Conditions,WindDirDegrees,DateUTC
12:53 AM,34.0,12.0,40,29.89,10.0,Calm,Calm,-,N/A,,Clear,0,2012-12-13 07:53:00
1:53 AM,35.1,12.0,39,29.89,10.0,North,8.1,-,N/A,,Clear,10,2012-12-13 08:53:00
2:53 AM,39.0,12.9,34,29.89,10.0,ENE,3.5,-,N/A,,Clear,60,2012-12-13 09:53:00
3:53 AM,30.9,12.0,46,29.93,10.0,Calm,Calm,-,N/A,,Clear,0,2012-12-13 10:53:00
4:53 AM,30.0,12.0,47,29.97,10.0,Calm,Calm,-,N/A,,Clear,0,2012-12-13 11:53:00
5:53 AM,36.0,12.9,39,29.98,10.0,Calm,Calm,-,N/A,,Clear,0,2012-12-13 12:53:00
6:53 AM,30.0,12.0,47,30.04,9.0,SSW,5.8,-,N/A,,Clear,200,2012-12-13 13:53:00
7:53 AM,33.1,14.0,46,30.04,10.0,South,8.1,-,N/A,,Clear,170,2012-12-13 14:53:00
8:53 AM,43.0,17.1,35,30.04,10.0,South,4.6,-,N/A,,Clear,190,2012-12-13 15:53:00
9:53 AM,51.1,16.0,25,30.04,10.0,SE,12.7,-,N/A,,Clear,140,2012-12-13 16:53:00
10:53 AM,53.1,16.0,23,30.02,10.0,ESE,12.7,-,N/A,,Clear,120,2012-12-13 17:53:00
11:53 AM,54.0,16.0,22,29.98,10.0,ESE,11.5,-,N/A,,Clear,120,2012-12-13 18:53:00
12:53 PM,55.0,16.0,22,29.96,10.0,SE,15.0,-,N/A,,Clear,130,2012-12-13 19:53:00
1:53 PM,55.9,15.1,20,29.94,10.0,SE,13.8,-,N/A,,Clear,130,2012-12-13 20:53:00
2:53 PM,55.9,15.1,20,29.92,10.0,SE,12.7,-,N/A,,Clear,140,2012-12-13 21:53:00
4:53 PM,39.9,12.9,33,29.98,10.0,SE,11.5,-,N/A,,Clear,140,2012-12-13 23:53:00
6:53 PM,33.1,12.0,42,30.01,10.0,SSE,12.7,-,N/A,,Clear,150,2012-12-14 01:53:00
7:53 PM,33.1,12.9,43,29.99,10.0,SSE,11.5,-,N/A,,Clear,160,2012-12-14 02:53:00
8:53 PM,32.0,12.9,45,29.96,10.0,South,12.7,-,N/A,,Clear,170,2012-12-14 03:53:00
9:53 PM,28.0,12.0,51,29.93,10.0,North,-9999.0,-,N/A,,Clear,0,2012-12-14 04:53:00
11:53 PM,21.9,10.0,60,29.91,10.0,WNW,5.8,-,N/A,,Clear,290,2012-12-14 06:53:00